メインページ
METAR-TAF:

METAR-TAF

空港 :

クウェート国際空港

クウェート, クウェート

緯度: 29-13N, 経度: 047-59E, 海抜: 55m

現時点の気象観測

当レポートは16分前の16:00(UTC)に作成
の風 13kt
気温 41°C
湿度 18%
気圧 999 hPa
視程: 6000m
晴天

METAR: OKBK 111600Z 35013KT 6000 SKC 41/12 Q0999 NOSIG

時間: 19:16 (16:16 UTC)

予報

当レポートは5時間31分前の10:45(UTC)に作成
予報は11日の 12時(UTC)から 12日の 18時(UTC)まで有効
北/北西の風 12kt、最大22ktの突風を伴う
視程: 7000m
11日の 12時(UTC)から 11日の 15時(UTC)まで一時的に
視程: 4000m
風塵

TAF: OKBK 111045Z 1112/1218 34012G22KT 7000 NSC TEMPO 1112/1115 4000 BLDU

4,000以上の空港の気象観測と天気予報(METAR報とTAF報)

利用可能な観測所は地図上に黄色い丸と赤い丸で示す。

丸の上にカーソルを重ねると観測所名を参照できる。

次にクリックすると気象観測と天気予報を参照できる。

マップの切り替え:黒色「×」印の緑ボタンをクリックして拡大、「-」印の緑ボタンをクリックして縮小、緑色の三角印をクリックして隣りの地図に切り替え


METAR-TAF: